VTK4040 UHPP-RKSI
Flight info
| Callsign | VTK4040 |
|---|---|
| Flight time | N/A |
| Altitude | 34000 |
| Route | N0500F340 SAMIK T577 UB G227 BAGOM R810 BULOD L771 NULAR B467 KANSU Y233 BUSKO B467 KAE G597 BIKSI |
| Aircraft | A346/H-SDE1E2E3FGHIJ2J3J4J5M1RWXYZ/L |
Departure
| Time | 2026-04-10 21:25 |
|---|---|
| Airport | Yelizovo Airport (UHPP) |
Arrival
| Time | N/A |
|---|---|
| Airport | Incheon International Airport (RKSI) |
| Time | Latitude | Longitude | Altitude | Speed | Heading |
|---|---|---|---|---|---|
| 2026-04-10 21:07 | 53.17180 | 158.42674 | 233 ft | 0 kts | 158° |
| 2026-04-10 21:22 | 53.17166 | 158.42683 | 230 ft | 7 kts | 158° |
| 2026-04-10 21:22 | 53.17093 | 158.42770 | 231 ft | 20 kts | 131° |
| 2026-04-10 21:22 | 53.17108 | 158.43031 | 231 ft | 30 kts | 59° |
| 2026-04-10 21:23 | 53.17217 | 158.43333 | 233 ft | 31 kts | 59° |
| 2026-04-10 21:23 | 53.17326 | 158.43642 | 232 ft | 31 kts | 59° |
| 2026-04-10 21:23 | 53.17438 | 158.43959 | 127 ft | 31 kts | 61° |
| 2026-04-10 21:23 | 53.17528 | 158.44291 | 129 ft | 29 kts | 67° |
| 2026-04-10 21:24 | 53.17579 | 158.44568 | 130 ft | 23 kts | 103° |
| 2026-04-10 21:24 | 53.17453 | 158.44680 | 131 ft | 22 kts | 154° |
| 2026-04-10 21:24 | 53.17139 | 158.44923 | 130 ft | 83 kts | 157° |
| 2026-04-10 21:24 | 53.16428 | 158.45406 | 130 ft | 137 kts | 158° |
| 2026-04-10 21:25 | 53.15393 | 158.46106 | 166 ft | 179 kts | 158° |
| 2026-04-10 21:25 | 53.14223 | 158.46838 | 667 ft | 182 kts | 160° |
| 2026-04-10 21:25 | 53.13045 | 158.47643 | 1200 ft | 185 kts | 155° |
| 2026-04-10 21:25 | 53.11869 | 158.48534 | 1803 ft | 187 kts | 156° |
| 2026-04-10 21:26 | 53.10652 | 158.49447 | 2300 ft | 199 kts | 158° |
| 2026-04-10 21:26 | 53.09333 | 158.50388 | 2658 ft | 214 kts | 158° |
| 2026-04-10 21:26 | 53.07905 | 158.51374 | 3003 ft | 230 kts | 159° |
| 2026-04-10 21:26 | 53.06362 | 158.52428 | 3359 ft | 250 kts | 159° |
| 2026-04-10 21:27 | 53.04704 | 158.53553 | 3865 ft | 263 kts | 158° |
| 2026-04-10 21:27 | 53.02986 | 158.54715 | 4603 ft | 270 kts | 158° |
| 2026-04-10 21:27 | 53.01239 | 158.55903 | 5386 ft | 274 kts | 158° |
| 2026-04-10 21:27 | 52.99421 | 158.56826 | 6165 ft | 277 kts | 178° |
| 2026-04-10 21:28 | 52.97550 | 158.56288 | 6936 ft | 274 kts | 210° |
| 2026-04-10 21:28 | 52.96108 | 158.54326 | 7766 ft | 268 kts | 238° |
| 2026-04-10 21:28 | 52.95419 | 158.51526 | 8638 ft | 263 kts | 265° |
| 2026-04-10 21:28 | 52.95532 | 158.48529 | 9562 ft | 261 kts | 281° |
| 2026-04-10 21:29 | 52.95851 | 158.45568 | 10432 ft | 262 kts | 280° |
| 2026-04-10 21:29 | 52.96172 | 158.42508 | 10977 ft | 276 kts | 280° |
| 2026-04-10 21:29 | 52.96500 | 158.39267 | 11368 ft | 294 kts | 279° |
| 2026-04-10 21:29 | 52.96845 | 158.35814 | 11743 ft | 312 kts | 279° |
| 2026-04-10 21:30 | 52.97205 | 158.32168 | 12083 ft | 329 kts | 279° |
| 2026-04-10 21:30 | 52.97582 | 158.28317 | 12465 ft | 345 kts | 279° |
| 2026-04-10 21:30 | 52.97967 | 158.24353 | 13188 ft | 350 kts | 279° |
| 2026-04-10 21:30 | 52.98352 | 158.20368 | 14059 ft | 351 kts | 279° |
| 2026-04-10 21:31 | 52.98738 | 158.16353 | 14817 ft | 354 kts | 278° |
| 2026-04-10 21:31 | 52.99122 | 158.12299 | 15503 ft | 358 kts | 279° |
| 2026-04-10 21:31 | 52.99509 | 158.08203 | 16287 ft | 360 kts | 279° |
| 2026-04-10 21:31 | 52.99896 | 158.04093 | 17038 ft | 362 kts | 279° |
| 2026-04-10 21:32 | 53.00282 | 157.99996 | 17799 ft | 364 kts | 279° |
| 2026-04-10 21:32 | 53.00673 | 157.95833 | 18567 ft | 366 kts | 279° |
| 2026-04-10 21:32 | 53.01066 | 157.91640 | 19161 ft | 368 kts | 279° |
| 2026-04-10 21:32 | 53.01459 | 157.87437 | 19811 ft | 369 kts | 279° |
| 2026-04-10 21:33 | 53.01851 | 157.83219 | 20501 ft | 370 kts | 279° |
| 2026-04-10 21:33 | 53.02242 | 157.78984 | 21170 ft | 371 kts | 278° |
| 2026-04-10 21:33 | 53.02632 | 157.74753 | 21832 ft | 373 kts | 278° |
| 2026-04-10 21:33 | 53.03023 | 157.70484 | 22503 ft | 374 kts | 278° |
| 2026-04-10 21:34 | 53.03369 | 157.66190 | 23181 ft | 376 kts | 275° |
| 2026-04-10 21:34 | 53.03427 | 157.61845 | 23799 ft | 378 kts | 269° |
| 2026-04-10 21:34 | 53.03178 | 157.57483 | 24278 ft | 381 kts | 263° |
| 2026-04-10 21:34 | 53.02628 | 157.53166 | 24796 ft | 384 kts | 258° |
| 2026-04-10 21:35 | 53.01959 | 157.48871 | 25318 ft | 384 kts | 258° |
| 2026-04-10 21:35 | 53.01277 | 157.44584 | 25880 ft | 385 kts | 258° |
| 2026-04-10 21:35 | 53.00589 | 157.40297 | 26447 ft | 385 kts | 258° |
| 2026-04-10 21:35 | 52.99895 | 157.35995 | 27000 ft | 385 kts | 258° |
| 2026-04-10 21:36 | 52.99201 | 157.31698 | 27539 ft | 386 kts | 258° |
| 2026-04-10 21:36 | 52.98503 | 157.27397 | 28033 ft | 387 kts | 258° |
| 2026-04-10 21:36 | 52.97802 | 157.23087 | 28580 ft | 387 kts | 258° |
| 2026-04-10 21:36 | 52.97098 | 157.18776 | 29187 ft | 386 kts | 258° |
| 2026-04-10 21:37 | 52.96394 | 157.14480 | 29737 ft | 386 kts | 258° |
| 2026-04-10 21:37 | 52.95690 | 157.10167 | 30044 ft | 390 kts | 258° |
| 2026-04-10 21:37 | 52.94982 | 157.05837 | 30565 ft | 387 kts | 257° |
| 2026-04-10 21:37 | 52.94281 | 157.01587 | 31474 ft | 376 kts | 257° |
| 2026-04-10 21:38 | 52.93598 | 156.97460 | 32294 ft | 368 kts | 257° |
| 2026-04-10 21:38 | 52.92924 | 156.93388 | 32898 ft | 365 kts | 257° |
| 2026-04-10 21:38 | 52.92254 | 156.89353 | 33400 ft | 363 kts | 257° |
| 2026-04-10 21:38 | 52.91583 | 156.85326 | 33917 ft | 361 kts | 257° |
| 2026-04-10 21:39 | 52.90916 | 156.81330 | 34376 ft | 359 kts | 256° |
| 2026-04-10 21:39 | 52.90247 | 156.77334 | 34650 ft | 362 kts | 256° |
| 2026-04-10 21:39 | 52.89569 | 156.73293 | 34799 ft | 367 kts | 256° |
| 2026-04-10 21:39 | 52.88881 | 156.69199 | 35003 ft | 370 kts | 256° |
| 2026-04-10 21:40 | 52.88187 | 156.65082 | 35241 ft | 373 kts | 256° |
| 2026-04-10 21:40 | 52.87491 | 156.60942 | 35425 ft | 376 kts | 256° |
| 2026-04-10 21:40 | 52.86783 | 156.56757 | 35609 ft | 380 kts | 256° |
| 2026-04-10 21:40 | 52.86063 | 156.52529 | 35802 ft | 383 kts | 256° |
| 2026-04-10 21:41 | 52.85339 | 156.48284 | 36002 ft | 385 kts | 256° |
| 2026-04-10 21:41 | 52.84609 | 156.44011 | 36017 ft | 388 kts | 256° |
| 2026-04-10 21:41 | 52.83136 | 156.35418 | 36027 ft | 388 kts | 256° |
| 2026-04-10 21:42 | 52.81598 | 156.26847 | 36031 ft | 389 kts | 253° |
| 2026-04-10 21:42 | 52.79734 | 156.18452 | 36031 ft | 390 kts | 252° |
| 2026-04-10 21:43 | 52.77840 | 156.10061 | 36026 ft | 390 kts | 251° |
| 2026-04-10 21:43 | 52.75925 | 156.01681 | 36034 ft | 390 kts | 251° |
| 2026-04-10 21:44 | 52.73998 | 155.93303 | 36032 ft | 391 kts | 251° |
| 2026-04-10 21:44 | 52.72067 | 155.84939 | 36036 ft | 391 kts | 251° |
| 2026-04-10 21:45 | 52.70134 | 155.76576 | 36033 ft | 391 kts | 251° |
| 2026-04-10 21:45 | 52.68194 | 155.68210 | 36016 ft | 391 kts | 251° |
| 2026-04-10 21:46 | 52.66240 | 155.59834 | 36028 ft | 392 kts | 251° |
| 2026-04-10 21:46 | 52.64279 | 155.51469 | 36027 ft | 392 kts | 250° |
| 2026-04-10 21:47 | 52.62312 | 155.43110 | 36027 ft | 392 kts | 250° |
| 2026-04-10 21:47 | 52.60338 | 155.34752 | 36028 ft | 392 kts | 250° |
| 2026-04-10 21:48 | 52.58357 | 155.26395 | 36013 ft | 392 kts | 250° |
| 2026-04-10 21:48 | 52.56368 | 155.18023 | 36032 ft | 394 kts | 250° |
| 2026-04-10 21:49 | 52.54365 | 155.09644 | 36017 ft | 394 kts | 250° |
| 2026-04-10 21:49 | 52.52355 | 155.01267 | 36034 ft | 394 kts | 250° |
| 2026-04-10 21:50 | 52.50340 | 154.92897 | 36018 ft | 394 kts | 250° |
| 2026-04-10 21:50 | 52.48320 | 154.84541 | 36029 ft | 394 kts | 250° |
| 2026-04-10 21:51 | 52.46292 | 154.76182 | 36027 ft | 394 kts | 250° |
| 2026-04-10 21:51 | 52.44258 | 154.67830 | 36023 ft | 394 kts | 250° |
| 2026-04-10 21:52 | 52.42221 | 154.59497 | 36023 ft | 395 kts | 249° |
| 2026-04-10 21:52 | 52.40174 | 154.51154 | 36024 ft | 395 kts | 249° |
| 2026-04-10 21:53 | 52.38125 | 154.42836 | 36029 ft | 395 kts | 249° |
| 2026-04-10 21:53 | 52.36067 | 154.34499 | 36013 ft | 396 kts | 249° |
| 2026-04-10 21:54 | 52.33987 | 154.26127 | 36019 ft | 397 kts | 249° |
| 2026-04-10 21:54 | 52.31897 | 154.17750 | 36021 ft | 397 kts | 249° |
| 2026-04-10 21:55 | 52.29808 | 154.09402 | 36020 ft | 397 kts | 249° |
| 2026-04-10 21:55 | 52.27702 | 154.01061 | 36015 ft | 397 kts | 249° |
| 2026-04-10 21:56 | 52.25582 | 153.92735 | 36006 ft | 398 kts | 248° |
| 2026-04-10 21:56 | 52.23449 | 153.84387 | 36014 ft | 399 kts | 248° |
| 2026-04-10 21:57 | 52.21305 | 153.76042 | 36014 ft | 400 kts | 248° |
| 2026-04-10 21:57 | 52.19151 | 153.67686 | 36012 ft | 400 kts | 248° |
| 2026-04-10 21:58 | 52.17011 | 153.59340 | 36013 ft | 400 kts | 248° |
| 2026-04-10 21:58 | 52.14865 | 153.50988 | 36013 ft | 400 kts | 248° |
| 2026-04-10 21:59 | 52.12710 | 153.42618 | 36006 ft | 402 kts | 248° |
| 2026-04-10 21:59 | 52.10535 | 153.34234 | 36009 ft | 402 kts | 247° |
| 2026-04-10 22:00 | 52.08354 | 153.25852 | 36009 ft | 402 kts | 247° |
| 2026-04-10 22:00 | 52.06171 | 153.17494 | 36010 ft | 402 kts | 247° |
| 2026-04-10 22:01 | 52.03980 | 153.09134 | 36003 ft | 403 kts | 247° |
| 2026-04-10 22:01 | 52.01779 | 153.00754 | 35999 ft | 405 kts | 247° |
| 2026-04-10 22:02 | 51.99565 | 152.92371 | 35999 ft | 405 kts | 247° |
| 2026-04-10 22:02 | 51.97341 | 152.83982 | 35997 ft | 405 kts | 247° |
| 2026-04-10 22:03 | 51.95110 | 152.75598 | 35993 ft | 405 kts | 246° |
| 2026-04-10 22:03 | 51.92879 | 152.67240 | 35992 ft | 405 kts | 246° |
| 2026-04-10 22:04 | 51.90635 | 152.58852 | 35983 ft | 407 kts | 246° |
| 2026-04-10 22:04 | 51.88374 | 152.50450 | 35987 ft | 408 kts | 246° |
| 2026-04-10 22:05 | 51.86107 | 152.42052 | 35982 ft | 407 kts | 246° |
| 2026-04-10 22:05 | 51.83834 | 152.33663 | 35983 ft | 407 kts | 246° |
| 2026-04-10 22:06 | 51.81553 | 152.25275 | 35980 ft | 408 kts | 246° |
| 2026-04-10 22:06 | 51.79268 | 152.16890 | 35978 ft | 409 kts | 246° |
| 2026-04-10 22:07 | 51.76963 | 152.08475 | 35971 ft | 410 kts | 246° |
| 2026-04-10 22:08 | 51.73492 | 151.95862 | 35972 ft | 410 kts | 245° |
| 2026-04-10 22:08 | 51.71174 | 151.87474 | 35972 ft | 410 kts | 245° |
| 2026-04-10 22:09 | 51.68843 | 151.79070 | 35949 ft | 410 kts | 245° |
| 2026-04-10 22:09 | 51.66506 | 151.70661 | 35961 ft | 412 kts | 245° |
| 2026-04-10 22:10 | 51.64152 | 151.62242 | 35957 ft | 413 kts | 245° |
| 2026-04-10 22:10 | 51.61794 | 151.53835 | 35958 ft | 413 kts | 245° |
| 2026-04-10 22:11 | 51.59429 | 151.45430 | 35955 ft | 413 kts | 245° |
| 2026-04-10 22:11 | 51.57058 | 151.37030 | 35962 ft | 413 kts | 245° |
| 2026-04-10 22:12 | 51.54673 | 151.28611 | 35951 ft | 415 kts | 245° |
| 2026-04-10 22:12 | 51.52276 | 151.20183 | 35950 ft | 415 kts | 244° |
| 2026-04-10 22:13 | 51.49872 | 151.11760 | 35944 ft | 415 kts | 244° |
| 2026-04-10 22:13 | 51.47462 | 151.03348 | 35944 ft | 415 kts | 244° |
| 2026-04-10 22:14 | 51.45048 | 150.94945 | 35931 ft | 416 kts | 244° |
| 2026-04-10 22:14 | 51.42617 | 150.86512 | 35939 ft | 418 kts | 244° |
| 2026-04-10 22:15 | 51.40172 | 150.78070 | 35933 ft | 418 kts | 244° |
| 2026-04-10 22:15 | 51.37723 | 150.69644 | 35933 ft | 418 kts | 244° |
| 2026-04-10 22:16 | 51.35269 | 150.61230 | 35928 ft | 418 kts | 244° |
| 2026-04-10 22:16 | 51.32808 | 150.52818 | 35928 ft | 418 kts | 244° |
| 2026-04-10 22:17 | 51.30338 | 150.44406 | 35918 ft | 418 kts | 244° |
| 2026-04-10 22:17 | 51.27866 | 150.36015 | 35917 ft | 418 kts | 244° |
| 2026-04-10 22:18 | 51.25386 | 150.27629 | 35917 ft | 418 kts | 244° |
| 2026-04-10 22:18 | 51.22901 | 150.19256 | 35917 ft | 418 kts | 244° |
| 2026-04-10 22:19 | 51.20407 | 150.10876 | 35909 ft | 419 kts | 243° |
| 2026-04-10 22:19 | 51.17898 | 150.02489 | 35911 ft | 420 kts | 243° |
| 2026-04-10 22:20 | 51.15217 | 149.94239 | 35906 ft | 420 kts | 241° |
| 2026-04-10 22:20 | 51.12488 | 149.86033 | 35906 ft | 420 kts | 241° |
| 2026-04-10 22:21 | 51.09748 | 149.77831 | 35898 ft | 420 kts | 241° |
| 2026-04-10 22:21 | 51.07001 | 149.69634 | 35897 ft | 421 kts | 240° |
| 2026-04-10 22:22 | 51.04236 | 149.61427 | 35887 ft | 422 kts | 240° |
| 2026-04-10 22:22 | 51.01461 | 149.53220 | 35887 ft | 422 kts | 240° |
| 2026-04-10 22:23 | 50.98682 | 149.45027 | 35882 ft | 422 kts | 240° |
| 2026-04-10 22:23 | 50.95901 | 149.36853 | 35881 ft | 422 kts | 240° |
| 2026-04-10 22:24 | 50.93100 | 149.28640 | 35875 ft | 424 kts | 240° |
| 2026-04-10 22:24 | 50.90288 | 149.20432 | 35868 ft | 425 kts | 240° |
| 2026-04-10 22:25 | 50.87467 | 149.12224 | 35866 ft | 425 kts | 240° |
| 2026-04-10 22:25 | 50.84639 | 149.04021 | 35857 ft | 425 kts | 240° |
| 2026-04-10 22:26 | 50.81805 | 148.95826 | 35854 ft | 425 kts | 239° |
| 2026-04-10 22:26 | 50.78952 | 148.87597 | 35851 ft | 427 kts | 239° |
| 2026-04-10 22:27 | 50.76090 | 148.79380 | 35851 ft | 428 kts | 239° |
| 2026-04-10 22:27 | 50.73219 | 148.71158 | 35843 ft | 428 kts | 239° |
| 2026-04-10 22:28 | 50.70345 | 148.62954 | 35837 ft | 428 kts | 239° |
| 2026-04-10 22:28 | 50.67460 | 148.54744 | 35831 ft | 430 kts | 239° |
| 2026-04-10 22:29 | 50.64556 | 148.46508 | 35832 ft | 431 kts | 239° |
| 2026-04-10 22:29 | 50.61640 | 148.38268 | 35821 ft | 431 kts | 239° |
| 2026-04-10 22:30 | 50.58718 | 148.30035 | 35820 ft | 431 kts | 239° |
| 2026-04-10 22:30 | 50.55792 | 148.21815 | 35815 ft | 431 kts | 239° |
| 2026-04-10 22:31 | 50.52854 | 148.13588 | 35806 ft | 433 kts | 239° |
| 2026-04-10 22:31 | 50.49904 | 148.05358 | 35805 ft | 433 kts | 238° |
| 2026-04-10 22:32 | 50.46945 | 147.97125 | 35794 ft | 433 kts | 238° |
| 2026-04-10 22:32 | 50.43981 | 147.88907 | 35791 ft | 433 kts | 238° |
| 2026-04-10 22:33 | 50.41013 | 147.80703 | 35786 ft | 434 kts | 238° |
| 2026-04-10 22:33 | 50.38029 | 147.72483 | 35785 ft | 434 kts | 238° |
| 2026-04-10 22:34 | 50.35037 | 147.64268 | 35763 ft | 435 kts | 238° |
| 2026-04-10 22:34 | 50.32032 | 147.56042 | 35772 ft | 436 kts | 238° |
| 2026-04-10 22:35 | 50.29016 | 147.47810 | 35767 ft | 436 kts | 238° |
| 2026-04-10 22:35 | 50.25998 | 147.39597 | 35770 ft | 436 kts | 238° |
| 2026-04-10 22:36 | 50.22970 | 147.31387 | 35755 ft | 436 kts | 238° |
| 2026-04-10 22:36 | 50.19939 | 147.23197 | 35750 ft | 436 kts | 238° |
| 2026-04-10 22:37 | 50.16900 | 147.15008 | 35750 ft | 436 kts | 238° |
| 2026-04-10 22:37 | 50.13856 | 147.06830 | 35743 ft | 437 kts | 238° |
| 2026-04-10 22:38 | 50.10808 | 146.98670 | 35737 ft | 437 kts | 238° |
| 2026-04-10 22:38 | 50.07745 | 146.90495 | 35733 ft | 437 kts | 238° |
| 2026-04-10 22:39 | 50.04676 | 146.82333 | 35730 ft | 437 kts | 238° |
| 2026-04-10 22:39 | 50.01606 | 146.74190 | 35725 ft | 437 kts | 237° |
| 2026-04-10 22:40 | 49.98527 | 146.66050 | 35708 ft | 437 kts | 237° |
| 2026-04-10 22:40 | 49.95442 | 146.57920 | 35708 ft | 437 kts | 237° |
| 2026-04-10 22:41 | 49.92357 | 146.49815 | 35708 ft | 437 kts | 237° |
| 2026-04-10 22:41 | 49.89261 | 146.41705 | 35708 ft | 437 kts | 237° |
| 2026-04-10 22:42 | 49.86155 | 146.33588 | 35718 ft | 440 kts | 237° |
| 2026-04-10 22:42 | 49.83017 | 146.25425 | 35704 ft | 442 kts | 237° |
| 2026-04-10 22:43 | 49.79874 | 146.17272 | 35690 ft | 442 kts | 237° |
| 2026-04-10 22:43 | 49.76721 | 146.09119 | 35689 ft | 442 kts | 237° |
| 2026-04-10 22:44 | 49.73560 | 146.00969 | 35697 ft | 442 kts | 237° |
| 2026-04-10 22:44 | 49.70387 | 145.92817 | 35678 ft | 444 kts | 237° |
| 2026-04-10 22:45 | 49.67161 | 145.84693 | 35678 ft | 444 kts | 235° |
| 2026-04-10 22:45 | 49.63799 | 145.76705 | 35673 ft | 444 kts | 234° |
| 2026-04-10 22:46 | 49.60433 | 145.68742 | 35674 ft | 444 kts | 235° |
| 2026-04-10 22:46 | 49.57058 | 145.60761 | 35653 ft | 445 kts | 234° |
| 2026-04-10 22:47 | 49.53679 | 145.52780 | 35668 ft | 445 kts | 234° |
| 2026-04-10 22:47 | 49.50294 | 145.44806 | 35661 ft | 446 kts | 234° |
| 2026-04-10 22:48 | 49.46902 | 145.36840 | 35663 ft | 445 kts | 234° |
| 2026-04-10 22:48 | 49.43503 | 145.28879 | 35657 ft | 447 kts | 234° |
| 2026-04-10 22:49 | 49.40089 | 145.20906 | 35650 ft | 447 kts | 234° |
| 2026-04-10 22:49 | 49.36669 | 145.12944 | 35637 ft | 448 kts | 234° |
| 2026-04-10 22:50 | 49.33239 | 145.04984 | 35631 ft | 448 kts | 234° |
| 2026-04-10 22:50 | 49.29800 | 144.97026 | 35641 ft | 448 kts | 234° |
| 2026-04-10 22:51 | 49.26359 | 144.89086 | 35632 ft | 449 kts | 234° |
| 2026-04-10 22:51 | 49.22897 | 144.81125 | 35619 ft | 449 kts | 234° |
| 2026-04-10 22:52 | 49.19438 | 144.73195 | 35621 ft | 449 kts | 234° |
| 2026-04-10 22:52 | 49.15970 | 144.65269 | 35621 ft | 449 kts | 234° |
| 2026-04-10 22:53 | 49.12487 | 144.57342 | 35612 ft | 450 kts | 234° |
| 2026-04-10 22:53 | 49.08996 | 144.49428 | 35609 ft | 450 kts | 234° |
| 2026-04-10 22:54 | 49.05500 | 144.41527 | 35601 ft | 450 kts | 234° |
| 2026-04-10 22:54 | 49.01994 | 144.33628 | 35600 ft | 450 kts | 234° |
| 2026-04-10 22:55 | 48.98477 | 144.25730 | 35603 ft | 451 kts | 234° |
| 2026-04-10 22:55 | 48.94957 | 144.17848 | 35590 ft | 451 kts | 234° |
| 2026-04-10 22:56 | 48.92012 | 144.11275 | 35586 ft | 451 kts | 234° |
| 2026-04-10 22:56 | 48.90836 | 144.08652 | 35587 ft | 451 kts | 234° |